Time;durP1;ratioP1;P1;durP2;ratioP2;P2;SDS_P1;SDS_P2;PMS_P1;PMS_P2;Temp;Humidity;BMP_temperature;BMP_pressure;BME280_temperature;BME280_humidity;BME280_pressure;Samples;Min_cycle;Max_cycle;Signal;HPM_P1;HPM_P2
2021/08/14 00:02:11;;;;;;;10.27;6.82;;;;;;;;;;4992425;28;20080;-74
2021/08/14 00:04:37;;;;;;;8.95;6.22;;;;;;;;;;4992143;28;20034;-74
2021/08/14 00:07:03;;;;;;;7.80;6.45;;;;;;;;;;4992469;28;20035;-73
2021/08/14 00:09:29;;;;;;;9.80;6.57;;;;;;;;;;4991724;28;20023;-73
2021/08/14 00:11:55;;;;;;;9.27;6.50;;;;;;;;;;4992326;28;20022;-73
2021/08/14 00:14:22;;;;;;;8.93;6.55;;;;;;;;;;4992273;28;20092;-74
2021/08/14 00:16:48;;;;;;;10.60;6.32;;;;;;;;;;4992381;28;20054;-74
2021/08/14 00:19:14;;;;;;;9.23;6.90;;;;;;;;;;4991544;28;20484;-75
2021/08/14 00:21:40;;;;;;;9.45;6.18;;;;;;;;;;4992315;28;20030;-76
2021/08/14 00:24:06;;;;;;;8.07;6.30;;;;;;;;;;4992290;28;20030;-75
2021/08/14 00:26:32;;;;;;;10.15;5.95;;;;;;;;;;4992292;28;20126;-73
2021/08/14 00:28:58;;;;;;;7.22;5.90;;;;;;;;;;4991563;28;20118;-73
2021/08/14 00:31:24;;;;;;;10.10;6.00;;;;;;;;;;4992090;28;20521;-74
2021/08/14 00:33:50;;;;;;;7.88;6.47;;;;;;;;;;4992137;28;20030;-74
2021/08/14 00:36:16;;;;;;;8.63;6.00;;;;;;;;;;4992172;28;20034;-73
2021/08/14 00:38:42;;;;;;;8.05;6.57;;;;;;;;;;4993549;28;20117;-74
2021/08/14 00:41:08;;;;;;;8.73;6.45;;;;;;;;;;4995493;28;20034;-73
2021/08/14 00:43:34;;;;;;;8.30;6.70;;;;;;;;;;4978334;28;20026;-73
2021/08/14 00:46:00;;;;;;;8.27;6.47;;;;;;;;;;4995839;28;20110;-73
2021/08/14 00:48:27;;;;;;;7.78;6.20;;;;;;;;;;4978278;28;20038;-74
2021/08/14 00:50:53;;;;;;;6.78;5.90;;;;;;;;;;4977192;28;20038;-73
2021/08/14 00:53:19;;;;;;;10.48;6.10;;;;;;;;;;4995737;28;20038;-74
2021/08/14 00:55:45;;;;;;;8.45;6.50;;;;;;;;;;4978270;28;20092;-73
2021/08/14 00:58:12;;;;;;;9.73;6.35;;;;;;;;;;4995576;28;20372;-73
2021/08/14 01:00:38;;;;;;;8.43;6.43;;;;;;;;;;4995000;28;20061;-74
2021/08/14 01:03:04;;;;;;;8.48;6.65;;;;;;;;;;4991663;28;20022;-74
2021/08/14 01:05:30;;;;;;;8.52;6.20;;;;;;;;;;4995056;28;20026;-74
2021/08/14 01:07:56;;;;;;;9.27;6.43;;;;;;;;;;4994301;28;20026;-74
2021/08/14 01:10:25;;;;;;;11.02;6.57;;;;;;;;;;4994065;28;20102;-74
2021/08/14 01:12:52;;;;;;;7.88;5.82;;;;;;;;;;4994125;28;20105;-73
2021/08/14 01:15:18;;;;;;;7.43;6.22;;;;;;;;;;4995366;28;20026;-73
2021/08/14 01:17:44;;;;;;;10.68;6.10;;;;;;;;;;4995328;28;20434;-73
2021/08/14 01:20:10;;;;;;;11.07;6.70;;;;;;;;;;4994655;28;20443;-73
2021/08/14 01:22:37;;;;;;;8.07;5.75;;;;;;;;;;4995205;28;20038;-75
2021/08/14 01:25:06;;;;;;;8.05;6.40;;;;;;;;;;4995496;28;20512;-74
2021/08/14 01:27:34;;;;;;;8.85;6.78;;;;;;;;;;4978050;28;20034;-73
2021/08/14 01:30:00;;;;;;;8.48;6.07;;;;;;;;;;4994546;28;20030;-73
2021/08/14 01:32:26;;;;;;;8.63;6.10;;;;;;;;;;4995160;28;20026;-74
2021/08/14 01:34:52;;;;;;;9.05;6.35;;;;;;;;;;4996756;28;20027;-73
2021/08/14 01:37:18;;;;;;;8.73;6.97;;;;;;;;;;4999232;28;20077;-73
2021/08/14 01:39:44;;;;;;;7.82;6.45;;;;;;;;;;4998255;28;20038;-73
2021/08/14 01:42:10;;;;;;;8.23;6.25;;;;;;;;;;4996942;28;20026;-74
2021/08/14 01:44:37;;;;;;;8.43;6.75;;;;;;;;;;4996313;28;20519;-75
2021/08/14 01:47:03;;;;;;;9.93;7.20;;;;;;;;;;4995392;28;20054;-75
2021/08/14 01:49:29;;;;;;;9.88;6.13;;;;;;;;;;4976316;28;20022;-75
2021/08/14 01:51:55;;;;;;;9.38;6.85;;;;;;;;;;4994555;28;20511;-75
2021/08/14 01:54:21;;;;;;;12.93;7.28;;;;;;;;;;4994575;28;20508;-75
2021/08/14 01:56:50;;;;;;;10.00;6.93;;;;;;;;;;4994552;28;20034;-76
2021/08/14 01:59:16;;;;;;;9.07;6.95;;;;;;;;;;4993939;28;20491;-76
2021/08/14 02:01:42;;;;;;;14.05;6.95;;;;;;;;;;4994450;28;20444;-76
2021/08/14 02:04:08;;;;;;;7.63;5.90;;;;;;;;;;4976929;28;20030;-76
2021/08/14 02:06:34;;;;;;;8.80;6.78;;;;;;;;;;4994444;28;20081;-75
2021/08/14 02:09:00;;;;;;;9.40;6.47;;;;;;;;;;4992542;28;20044;-75
2021/08/14 02:11:28;;;;;;;11.30;7.22;;;;;;;;;;4994286;28;20109;-76
2021/08/14 02:13:55;;;;;;;8.45;6.15;;;;;;;;;;4994303;28;20026;-75
2021/08/14 02:16:21;;;;;;;10.43;6.63;;;;;;;;;;4994438;28;20452;-75
2021/08/14 02:18:47;;;;;;;8.88;6.50;;;;;;;;;;4994143;28;20034;-75
2021/08/14 02:21:13;;;;;;;8.88;6.55;;;;;;;;;;4993853;28;20037;-75
2021/08/14 02:23:39;;;;;;;8.40;7.10;;;;;;;;;;4994117;28;20046;-75
2021/08/14 02:26:06;;;;;;;8.73;6.78;;;;;;;;;;4993999;28;20030;-74
2021/08/14 02:28:32;;;;;;;11.13;7.38;;;;;;;;;;4993889;28;20080;-74
2021/08/14 02:30:59;;;;;;;10.93;7.05;;;;;;;;;;4993481;28;20035;-74
2021/08/14 02:33:25;;;;;;;11.13;7.60;;;;;;;;;;4994079;28;20104;-75
2021/08/14 02:35:52;;;;;;;12.90;7.75;;;;;;;;;;4993670;28;20027;-74
2021/08/14 02:38:18;;;;;;;11.13;7.40;;;;;;;;;;4993892;28;20120;-75
2021/08/14 02:40:47;;;;;;;12.02;7.60;;;;;;;;;;4993234;28;20027;-74
2021/08/14 02:43:13;;;;;;;8.85;7.53;;;;;;;;;;4993633;28;20041;-75
2021/08/14 02:45:40;;;;;;;8.27;7.30;;;;;;;;;;4993714;28;20026;-75
2021/08/14 02:48:06;;;;;;;10.95;8.07;;;;;;;;;;4993641;28;20057;-74
2021/08/14 02:50:32;;;;;;;11.63;7.47;;;;;;;;;;4992620;28;20383;-74
2021/08/14 02:52:58;;;;;;;12.15;8.27;;;;;;;;;;4993423;28;20045;-74
2021/08/14 02:55:25;;;;;;;11.32;8.02;;;;;;;;;;4993380;28;20109;-75
2021/08/14 02:57:51;;;;;;;9.20;7.88;;;;;;;;;;4993467;28;20077;-74
2021/08/14 03:00:17;;;;;;;11.75;8.23;;;;;;;;;;4992772;28;20050;-74
2021/08/14 03:02:43;;;;;;;9.35;8.32;;;;;;;;;;4993188;28;20062;-74
2021/08/14 03:05:09;;;;;;;11.57;8.50;;;;;;;;;;4992973;28;20031;-74
2021/08/14 03:07:35;;;;;;;11.82;8.02;;;;;;;;;;4993288;28;20034;-74
2021/08/14 03:10:01;;;;;;;12.40;8.15;;;;;;;;;;4992539;28;20038;-74
2021/08/14 03:12:27;;;;;;;10.63;7.60;;;;;;;;;;4993075;28;20037;-75
2021/08/14 03:14:53;;;;;;;11.65;7.05;;;;;;;;;;4993211;28;20023;-74
2021/08/14 03:17:19;;;;;;;10.70;7.03;;;;;;;;;;4993191;28;20061;-75
2021/08/14 03:19:46;;;;;;;9.88;7.60;;;;;;;;;;4992141;28;20027;-72
2021/08/14 03:22:12;;;;;;;10.85;7.40;;;;;;;;;;4993130;28;20085;-73
2021/08/14 03:24:38;;;;;;;9.95;7.25;;;;;;;;;;4993097;28;20588;-73
2021/08/14 03:27:04;;;;;;;14.15;8.20;;;;;;;;;;4992961;28;20502;-74
2021/08/14 03:29:30;;;;;;;13.05;8.25;;;;;;;;;;4992378;28;20509;-73
2021/08/14 03:31:56;;;;;;;12.80;8.48;;;;;;;;;;4993077;28;20045;-73
2021/08/14 03:34:22;;;;;;;11.85;8.00;;;;;;;;;;4992727;28;20022;-72
2021/08/14 03:36:48;;;;;;;11.00;8.27;;;;;;;;;;4992797;28;20490;-74
2021/08/14 03:39:14;;;;;;;14.48;8.55;;;;;;;;;;4992091;28;20033;-75
2021/08/14 03:41:40;;;;;;;8.73;7.25;;;;;;;;;;4992604;28;20479;-74
2021/08/14 03:44:06;;;;;;;12.60;7.05;;;;;;;;;;4992642;28;20455;-74
2021/08/14 03:46:32;;;;;;;11.10;7.20;;;;;;;;;;4992650;28;20031;-74
2021/08/14 03:48:58;;;;;;;11.27;7.38;;;;;;;;;;4992284;28;20037;-74
2021/08/14 03:51:24;;;;;;;10.57;7.20;;;;;;;;;;4992081;28;20063;-74
2021/08/14 03:53:50;;;;;;;12.23;7.72;;;;;;;;;;4992500;28;20027;-74
2021/08/14 03:56:16;;;;;;;8.35;7.22;;;;;;;;;;4992629;28;20357;-74
2021/08/14 03:58:42;;;;;;;10.82;7.45;;;;;;;;;;4992289;28;20080;-74
2021/08/14 04:01:08;;;;;;;8.93;7.10;;;;;;;;;;4992052;28;20492;-74
2021/08/14 04:03:34;;;;;;;10.95;6.72;;;;;;;;;;4992411;28;20488;-74
2021/08/14 04:06:01;;;;;;;9.93;6.80;;;;;;;;;;4992206;28;20411;-74
2021/08/14 04:08:27;;;;;;;9.38;7.45;;;;;;;;;;4992338;28;20034;-74
2021/08/14 04:10:53;;;;;;;10.25;7.95;;;;;;;;;;4991902;28;20108;-74
2021/08/14 04:13:19;;;;;;;8.13;7.10;;;;;;;;;;4993403;28;20050;-75
2021/08/14 04:15:45;;;;;;;11.60;8.18;;;;;;;;;;4996381;28;20164;-75
2021/08/14 04:18:11;;;;;;;9.52;7.70;;;;;;;;;;4996713;28;20475;-74
2021/08/14 04:20:37;;;;;;;13.50;8.32;;;;;;;;;;4995548;28;20053;-74
2021/08/14 04:23:03;;;;;;;12.15;7.80;;;;;;;;;;4996294;28;20113;-74
2021/08/14 04:25:30;;;;;;;12.05;7.85;;;;;;;;;;4996579;28;20474;-74
2021/08/14 04:27:56;;;;;;;14.05;7.93;;;;;;;;;;4996248;28;20372;-74
2021/08/14 04:30:22;;;;;;;12.57;8.60;;;;;;;;;;4995480;28;20125;-74
2021/08/14 04:32:50;;;;;;;8.95;7.55;;;;;;;;;;5021532;22;20023;-75
2021/08/14 04:35:17;;;;;;;14.20;7.63;;;;;;;;;;5014344;28;20053;-75
2021/08/14 04:37:43;;;;;;;12.48;7.13;;;;;;;;;;5015728;28;20033;-76
2021/08/14 04:40:10;;;;;;;13.57;7.93;;;;;;;;;;5015137;28;20072;-76
2021/08/14 04:42:36;;;;;;;9.30;7.15;;;;;;;;;;5015762;28;20105;-76
2021/08/14 04:45:03;;;;;;;11.48;7.25;;;;;;;;;;5015441;28;20080;-76
2021/08/14 04:47:29;;;;;;;9.00;7.15;;;;;;;;;;4997926;28;20033;-76
2021/08/14 04:49:55;;;;;;;11.82;7.45;;;;;;;;;;5014579;28;20030;-75
2021/08/14 04:52:21;;;;;;;10.85;7.07;;;;;;;;;;4997854;28;20022;-76
2021/08/14 04:54:47;;;;;;;9.52;7.40;;;;;;;;;;5015385;28;20398;-75
2021/08/14 04:57:13;;;;;;;7.32;6.43;;;;;;;;;;5015360;28;20086;-75
2021/08/14 04:59:39;;;;;;;10.45;6.53;;;;;;;;;;5014618;28;20103;-75
2021/08/14 05:02:05;;;;;;;11.77;6.97;;;;;;;;;;4997658;28;20022;-76
2021/08/14 05:04:31;;;;;;;8.38;6.88;;;;;;;;;;5014998;28;20021;-76
2021/08/14 05:06:57;;;;;;;9.55;7.07;;;;;;;;;;5015167;28;20026;-75
2021/08/14 05:09:23;;;;;;;10.52;7.20;;;;;;;;;;5014530;28;20025;-75
2021/08/14 05:11:49;;;;;;;8.75;6.53;;;;;;;;;;4997426;28;20030;-76
2021/08/14 05:14:15;;;;;;;7.85;6.35;;;;;;;;;;5014904;28;20532;-75
2021/08/14 05:16:41;;;;;;;12.57;6.90;;;;;;;;;;5015018;28;20068;-75
2021/08/14 05:19:07;;;;;;;9.90;6.03;;;;;;;;;;5014446;28;20062;-75
2021/08/14 05:21:34;;;;;;;10.30;6.32;;;;;;;;;;5014764;28;20036;-75
2021/08/14 05:24:00;;;;;;;8.27;6.53;;;;;;;;;;5014561;28;20056;-75
2021/08/14 05:26:26;;;;;;;10.98;6.38;;;;;;;;;;5014111;28;20080;-75
2021/08/14 05:28:52;;;;;;;7.63;5.95;;;;;;;;;;5014920;28;20116;-76
2021/08/14 05:31:18;;;;;;;7.32;6.00;;;;;;;;;;5014797;28;20117;-76
2021/08/14 05:33:44;;;;;;;8.20;5.88;;;;;;;;;;5014614;28;20048;-77
2021/08/14 05:36:10;;;;;;;7.88;6.53;;;;;;;;;;5014517;28;20029;-76
2021/08/14 05:38:36;;;;;;;7.50;5.65;;;;;;;;;;5014758;28;20394;-76
2021/08/14 05:41:03;;;;;;;9.50;6.72;;;;;;;;;;5014771;28;20049;-76
2021/08/14 05:43:29;;;;;;;8.05;6.18;;;;;;;;;;4997347;28;20026;-76
2021/08/14 05:45:55;;;;;;;7.88;6.05;;;;;;;;;;5014690;28;20036;-77
2021/08/14 05:48:21;;;;;;;7.53;6.07;;;;;;;;;;5010900;28;20399;-77
2021/08/14 05:50:47;;;;;;;10.43;6.03;;;;;;;;;;5013237;28;20037;-77
2021/08/14 05:53:14;;;;;;;10.50;6.10;;;;;;;;;;5014224;28;20026;-76
2021/08/14 05:55:40;;;;;;;8.13;6.03;;;;;;;;;;5014201;28;20030;-77
2021/08/14 05:58:06;;;;;;;11.32;7.15;;;;;;;;;;5014467;28;20478;-77
2021/08/14 06:00:32;;;;;;;7.05;5.55;;;;;;;;;;5014465;28;20117;-77
2021/08/14 06:02:58;;;;;;;8.15;5.45;;;;;;;;;;5014766;28;20057;-77
2021/08/14 06:05:24;;;;;;;10.45;5.70;;;;;;;;;;5014290;28;20034;-77
2021/08/14 06:07:51;;;;;;;8.20;5.30;;;;;;;;;;5014616;28;20037;-77
2021/08/14 06:10:18;;;;;;;9.73;5.13;;;;;;;;;;5013606;28;20036;-77
2021/08/14 06:12:45;;;;;;;6.70;4.90;;;;;;;;;;5014440;28;20026;-77
2021/08/14 06:15:11;;;;;;;10.13;5.72;;;;;;;;;;5014790;28;20502;-75
2021/08/14 06:17:38;;;;;;;8.23;5.60;;;;;;;;;;4997286;28;20398;-77
2021/08/14 06:20:04;;;;;;;7.22;5.85;;;;;;;;;;5014124;28;20068;-77
2021/08/14 06:22:31;;;;;;;8.60;5.53;;;;;;;;;;5015285;28;20501;-77
2021/08/14 06:24:57;;;;;;;7.80;5.20;;;;;;;;;;4997210;28;20557;-77
2021/08/14 06:27:23;;;;;;;7.75;5.22;;;;;;;;;;5015015;28;20113;-75
2021/08/14 06:29:49;;;;;;;8.57;5.65;;;;;;;;;;5012781;28;20029;-75
2021/08/14 06:32:14;;;;;;;8.88;5.78;;;;;;;;;;4996273;28;20030;-75
2021/08/14 06:34:40;;;;;;;8.63;5.45;;;;;;;;;;4995406;28;20563;-75
2021/08/14 06:37:07;;;;;;;7.65;5.70;;;;;;;;;;5012793;28;20041;-75
2021/08/14 06:39:33;;;;;;;7.97;4.78;;;;;;;;;;4994806;28;20018;-75
2021/08/14 06:41:59;;;;;;;7.45;4.80;;;;;;;;;;5013143;28;20519;-75
2021/08/14 06:44:25;;;;;;;6.88;5.45;;;;;;;;;;4995799;28;20096;-75
2021/08/14 06:46:51;;;;;;;7.75;5.43;;;;;;;;;;5013012;28;20065;-75
2021/08/14 06:49:17;;;;;;;8.60;5.03;;;;;;;;;;4995058;28;20030;-76
2021/08/14 06:51:42;;;;;;;8.18;5.72;;;;;;;;;;5012580;28;20096;-75
2021/08/14 06:54:09;;;;;;;7.00;5.47;;;;;;;;;;5012824;28;20026;-75
2021/08/14 06:56:35;;;;;;;10.05;5.53;;;;;;;;;;5013006;28;20034;-76
2021/08/14 06:59:01;;;;;;;8.60;5.38;;;;;;;;;;5012136;28;20029;-75
2021/08/14 07:01:27;;;;;;;7.63;5.25;;;;;;;;;;5012934;28;20029;-76
2021/08/14 07:03:53;;;;;;;7.55;5.25;;;;;;;;;;5012695;28;20026;-75
2021/08/14 07:06:22;;;;;;;7.68;5.05;;;;;;;;;;4995074;28;20040;-76
2021/08/14 07:08:48;;;;;;;6.38;4.88;;;;;;;;;;5012204;28;20029;-75
2021/08/14 07:11:16;;;;;;;6.88;4.93;;;;;;;;;;5012367;28;20500;-74
2021/08/14 07:13:42;;;;;;;8.32;4.72;;;;;;;;;;5012549;28;20386;-76
2021/08/14 07:16:08;;;;;;;8.23;4.47;;;;;;;;;;4995080;28;20164;-76
2021/08/14 07:18:34;;;;;;;7.63;4.53;;;;;;;;;;5012467;28;20093;-75
2021/08/14 07:21:00;;;;;;;7.68;5.28;;;;;;;;;;5011575;28;20030;-76
2021/08/14 07:23:25;;;;;;;10.07;5.18;;;19.70;99.90;;;;;;5012254;28;20503;-75
2021/08/14 07:25:52;;;;;;;8.82;4.82;;;22.50;99.90;;;;;;5012417;28;20037;-76
2021/08/14 07:28:18;;;;;;;7.63;4.60;;;;;;;;;;5010795;28;20026;-75
2021/08/14 07:30:44;;;;;;;6.60;4.40;;;;;;;;;;5011606;28;20497;-76
2021/08/14 07:33:10;;;;;;;6.68;4.70;;;;;;;;;;5011656;28;20495;-74
2021/08/14 07:35:36;;;;;;;6.03;4.88;;;;;;;;;;5012207;28;20105;-76
2021/08/14 07:38:02;;;;;;;8.38;5.03;;;;;;;;;;5011297;28;20026;-76
2021/08/14 07:40:28;;;;;;;7.38;4.72;;;;;;;;;;5011637;28;20022;-76
2021/08/14 07:42:54;;;;;;;6.75;5.25;;;;;;;;;;5012237;28;20026;-76
2021/08/14 07:45:21;;;;;;;7.18;4.80;;;;;;;;;;5012325;28;20065;-75
2021/08/14 07:47:48;;;;;;;10.82;4.93;;;;;;;;;;5011494;28;20038;-76
2021/08/14 07:50:21;;;;;;;5.90;4.75;;;;;;;;;;5011164;28;20026;-75
2021/08/14 07:52:47;;;;;;;6.85;5.28;;;;;;;;;;5011978;28;20025;-76
2021/08/14 07:55:13;;;;;;;8.23;4.68;;;;;;;;;;4994570;28;20022;-77
2021/08/14 07:57:40;;;;;;;14.90;4.95;;;;;;;;;;5012480;28;20033;-77
2021/08/14 08:00:07;;;;;;;9.75;4.65;;;;;;;;;;5012562;28;20030;-75
2021/08/14 08:02:33;;;;;;;6.45;4.95;;;;;;;;;;4994625;28;20559;-75
2021/08/14 08:04:59;;;;;;;7.32;5.20;;;;;;;;;;5011768;28;20109;-75
2021/08/14 08:07:25;;;;;;;9.80;4.88;;;;;;;;;;5011910;28;20479;-75
2021/08/14 08:09:51;;;;;;;7.68;4.93;;;;;;;;;;5011322;28;20034;-75
2021/08/14 08:12:17;;;;;;;9.32;4.88;;;;;;;;;;5012049;28;20032;-75
2021/08/14 08:14:42;;;;;;;8.20;4.68;;;;;;;;;;5011946;28;20041;-75
2021/08/14 08:17:09;;;;;;;6.50;4.40;;;;;;;;;;5011624;28;20097;-75
2021/08/14 08:19:35;;;;;;;7.00;4.40;;;;;;;;;;5011261;28;20026;-76
2021/08/14 08:22:01;;;;;;;7.43;4.70;;;;;;;;;;5011959;28;20088;-76
2021/08/14 08:24:27;;;;;;;6.10;4.47;;;;;;;;;;5011907;28;20034;-76
2021/08/14 08:26:53;;;;;;;7.32;4.95;;;;;;;;;;5011872;28;20037;-76
2021/08/14 08:29:19;;;;;;;6.60;4.30;;;;;;;;;;4993844;28;20030;-76
2021/08/14 08:31:45;;;;;;;7.50;4.20;;;;;;;;;;4994900;28;20506;-76
2021/08/14 08:34:11;;;;;;;8.23;4.40;;;;;;;;;;4994543;28;20026;-76
2021/08/14 08:36:37;;;;;;;5.60;3.90;;;;;;;;;;5011927;28;20045;-77
2021/08/14 08:39:03;;;;;;;7.05;4.43;;;;;;;;;;5011481;28;20034;-77
2021/08/14 08:41:29;;;;;;;7.47;4.03;;;;;;;;;;5011676;28;20088;-77
2021/08/14 08:43:55;;;;;;;4.50;3.90;;;;;;;;;;5011662;28;20061;-75
2021/08/14 08:46:21;;;;;;;6.75;4.00;;;;;;;;;;5011732;28;20032;-76
2021/08/14 08:48:52;;;;;;;5.95;4.13;;;;;;;;;;5011376;28;20030;-76
2021/08/14 08:51:25;;;;;;;7.20;4.35;;;;;;;;;;5011156;28;20029;-77
2021/08/14 08:53:51;;;;;;;7.75;4.28;;;;;;;;;;5011466;28;20026;-77
2021/08/14 08:56:18;;;;;;;5.18;4.15;;;;;;;;;;5011677;28;20076;-76
2021/08/14 08:58:44;;;;;;;6.53;3.67;;;;;;;;;;5011353;28;20022;-76
2021/08/14 09:01:10;;;;;;;5.30;3.58;;;;;;;;;;5015028;28;20407;-76
2021/08/14 09:03:36;;;;;;;5.97;3.90;;;;;;;;;;5015371;28;20034;-75
2021/08/14 09:06:02;;;;;;;9.65;3.92;;;;;;;;;;5015215;28;20040;-77
2021/08/14 09:08:28;;;;;;;5.32;4.00;;;;;;;;;;5015727;28;20037;-76
2021/08/14 09:11:08;;;;;;;6.88;4.25;;;;;;;;;;5015126;28;20029;-75
2021/08/14 09:13:34;;;;;;;6.43;4.20;;;22.50;99.90;;;;;;5015713;28;20026;-76
2021/08/14 09:16:17;;;;;;;7.32;4.30;;;28.10;99.90;;;;;;5016360;28;20029;-77
2021/08/14 09:19:00;;;;;;;6.13;3.60;;;28.10;99.90;;;;;;5014945;28;20029;-77
2021/08/14 09:21:35;;;;;;;8.05;4.50;;;28.10;99.90;;;;;;5016275;28;20042;-77
2021/08/14 09:24:05;;;;;;;9.25;4.13;;;28.30;99.90;;;;;;5015400;28;20026;-77
2021/08/14 09:26:53;;;;;;;8.73;4.07;;;28.30;99.90;;;;;;5014815;28;20058;-77
2021/08/14 09:29:32;;;;;;;4.63;3.60;;;28.50;99.90;;;;;;5013597;28;20034;-77
2021/08/14 09:31:59;;;;;;;8.98;4.13;;;28.70;99.90;;;;;;5014777;28;20084;-77
2021/08/14 09:34:26;;;;;;;8.43;4.40;;;28.80;99.70;;;;;;5014570;28;20038;-76
2021/08/14 09:37:05;;;;;;;10.70;3.92;;;28.90;99.00;;;;;;5014960;28;20022;-76
2021/08/14 09:39:33;;;;;;;9.20;4.25;;;29.00;98.10;;;;;;5014902;28;20025;-77
2021/08/14 09:42:07;;;;;;;7.63;3.78;;;29.40;98.70;;;;;;5014654;28;20048;-77
2021/08/14 09:44:37;;;;;;;7.63;4.65;;;29.50;96.70;;;;;;5014565;28;20398;-76
2021/08/14 09:47:11;;;;;;;9.63;4.53;;;30.20;95.30;;;;;;4996843;28;20120;-77
2021/08/14 09:49:49;;;;;;;5.63;4.00;;;30.80;94.60;;;;;;5014054;28;20129;-77
2021/08/14 09:52:23;;;;;;;6.60;3.90;;;31.60;93.30;;;;;;5014410;28;20022;-77
2021/08/14 09:54:49;;;;;;;12.27;4.78;;;32.40;90.80;;;;;;5014361;28;20022;-77
2021/08/14 09:57:19;;;;;;;5.22;3.80;;;33.00;86.70;;;;;;5014703;28;20053;-77
2021/08/14 09:59:46;;;;;;;10.02;4.00;;;32.90;85.00;;;;;;4995852;28;20037;-76
2021/08/14 10:02:32;;;;;;;7.70;4.07;;;33.60;82.10;;;;;;5013948;28;20113;-76
2021/08/14 10:04:58;;;;;;;6.03;3.67;;;33.80;79.30;;;;;;4996047;28;20096;-75
2021/08/14 10:07:25;;;;;;;8.98;3.90;;;34.50;75.40;;;;;;5013647;28;20380;-76
2021/08/14 10:09:51;;;;;;;7.22;4.15;;;33.70;75.70;;;;;;5014006;28;20050;-76
2021/08/14 10:12:18;;;;;;;6.82;4.00;;;33.50;75.00;;;;;;5013094;28;20025;-76
2021/08/14 10:14:46;;;;;;;5.00;3.83;;;34.30;74.90;;;;;;5015019;28;20022;-77
2021/08/14 10:17:16;;;;;;;6.85;3.80;;;34.40;71.10;;;;;;5022923;28;20038;-76
2021/08/14 10:19:43;;;;;;;5.45;4.20;;;35.00;71.20;;;;;;4996465;28;20494;-77
2021/08/14 10:22:10;;;;;;;5.85;3.75;;;36.10;70.20;;;;;;4996099;28;20092;-77
2021/08/14 10:24:38;;;;;;;7.53;4.43;;;36.70;65.70;;;;;;5013500;28;20101;-77
2021/08/14 10:27:10;;;;;;;4.80;3.83;;;36.70;65.30;;;;;;5013590;28;20032;-76
2021/08/14 10:29:44;;;;;;;7.50;4.25;;;36.30;65.00;;;;;;5012844;28;20422;-76
2021/08/14 10:32:10;;;;;;;7.53;4.05;;;35.90;64.40;;;;;;5013389;28;20022;-76
2021/08/14 10:34:37;;;;;;;5.28;3.95;;;35.80;64.80;;;;;;5030967;22;20045;-79
2021/08/14 10:37:35;;;;;;;6.68;3.97;;;37.00;62.90;;;;;;5019799;28;20055;-79
2021/08/14 10:40:01;;;;;;;8.25;3.72;;;36.30;64.10;;;;;;5017536;28;20474;-79
2021/08/14 10:42:52;;;;;;;5.28;3.95;;;36.40;62.30;;;;;;5018253;28;20081;-78
2021/08/14 10:45:35;;;;;;;6.65;3.65;;;37.50;60.60;;;;;;5000802;28;20022;-79
2021/08/14 10:48:05;;;;;;;8.73;3.92;;;38.40;59.00;;;;;;5018406;28;20057;-78
2021/08/14 10:50:33;;;;;;;5.07;3.92;;;38.00;58.30;;;;;;4999097;28;20026;-78
2021/08/14 10:53:15;;;;;;;8.18;5.18;;;36.40;60.40;;;;;;5018213;28;20050;-79
2021/08/14 10:55:43;;;;;;;6.28;3.63;;;35.80;60.90;;;;;;5017916;28;20024;-79
2021/08/14 10:58:36;;;;;;;7.90;4.28;;;34.60;62.30;;;;;;5017840;28;20083;-79
2021/08/14 11:01:05;;;;;;;5.28;4.03;;;34.20;63.80;;;;;;5017638;28;20030;-79
2021/08/14 11:03:35;;;;;;;5.50;3.78;;;33.70;65.10;;;;;;5000465;28;20037;-78
2021/08/14 11:06:39;;;;;;;8.07;4.10;;;33.60;63.60;;;;;;5019562;28;20044;-78
2021/08/14 11:09:17;;;;;;;4.78;3.75;;;34.70;63.40;;;;;;4923021;29;20043;-78
2021/08/14 11:11:49;;;;;;;4.88;4.00;;;35.50;62.70;;;;;;4938618;29;20031;-78
2021/08/14 11:14:16;;;;;;;10.73;4.40;;;36.50;63.80;;;;;;4986056;28;20041;-79
2021/08/14 11:17:02;;;;;;;5.82;3.75;;;38.00;59.90;;;;;;5017729;28;20689;-79
2021/08/14 11:19:51;;;;;;;8.07;4.38;;;39.00;58.50;;;;;;5017379;28;20101;-79
2021/08/14 11:22:28;;;;;;;8.18;4.15;;;38.70;56.20;;;;;;4999473;28;20026;-79
2021/08/14 11:24:56;;;;;;;7.38;4.00;;;38.60;57.60;;;;;;5018119;28;20072;-79
2021/08/14 11:27:26;;;;;;;5.10;4.30;;;38.90;58.00;;;;;;5001309;28;20034;-78
2021/08/14 11:29:54;;;;;;;7.60;4.30;;;39.50;56.40;;;;;;5029053;28;20036;-79
2021/08/14 11:32:19;;;;;;;5.95;4.10;;;39.40;55.60;;;;;;5041776;28;20171;-77
2021/08/14 11:34:45;;;;;;;8.32;4.35;;;39.30;56.80;;;;;;5030495;28;20037;-79
2021/08/14 11:37:11;;;;;;;6.15;4.40;;;38.60;56.70;;;;;;5027587;28;20049;-78
2021/08/14 11:39:38;;;;;;;7.10;4.05;;;38.40;56.80;;;;;;5049061;28;20052;-78
2021/08/14 11:42:04;;;;;;;5.68;4.38;;;38.30;55.70;;;;;;5030694;28;20124;-79
2021/08/14 11:44:32;;;;;;;6.43;4.50;;;39.40;56.10;;;;;;5037710;28;20036;-79
2021/08/14 11:47:09;;;;;;;6.82;4.30;;;39.70;54.40;;;;;;5037417;28;20497;-79
2021/08/14 11:49:52;;;;;;;5.35;4.45;;;39.00;56.70;;;;;;5036805;28;20018;-79
2021/08/14 11:52:25;;;;;;;6.88;4.38;;;38.80;56.90;;;;;;5036648;28;20061;-79
2021/08/14 11:54:56;;;;;;;10.15;4.25;;;39.20;56.90;;;;;;5036407;28;20018;-79
2021/08/14 11:57:28;;;;;;;6.63;4.65;;;39.00;55.70;;;;;;5037273;28;20017;-79
2021/08/14 11:59:53;;;;;;;5.63;4.70;;;39.00;55.90;;;;;;5036267;28;20022;-79
2021/08/14 12:02:21;;;;;;;6.45;4.32;;;38.90;55.50;;;;;;5036963;28;20026;-79
2021/08/14 12:04:47;;;;;;;5.72;4.40;;;39.60;54.90;;;;;;5037689;28;20025;-79
2021/08/14 12:07:13;;;;;;;7.78;5.32;;;39.50;54.20;;;;;;5047077;28;20075;-78
2021/08/14 12:09:39;;;;;;;7.32;4.43;;;39.50;55.50;;;;;;5029577;28;20056;-78
2021/08/14 12:12:05;;;;;;;10.45;4.38;;;39.20;54.00;;;;;;5042406;28;20033;-80
2021/08/14 12:14:30;;;;;;;7.78;4.50;;;38.50;55.60;;;;;;5031732;28;20083;-79
2021/08/14 12:17:01;;;;;;;8.77;4.18;;;39.20;55.50;;;;;;5036854;28;20022;-80
2021/08/14 12:19:27;;;;;;;10.52;4.03;;;39.00;54.90;;;;;;5036432;28;20689;-80
2021/08/14 12:22:08;;;;;;;9.93;4.38;;;39.40;55.70;;;;;;5019406;28;20030;-80
2021/08/14 12:24:33;;;;;;;9.70;4.60;;;39.80;54.40;;;;;;5036059;28;20021;-79
2021/08/14 12:26:59;;;;;;;8.07;4.95;;;38.70;54.80;;;;;;5036828;28;20026;-79
2021/08/14 12:29:25;;;;;;;5.70;4.50;;;38.50;55.80;;;;;;5046696;28;20037;-79
2021/08/14 12:31:52;;;;;;;6.88;4.85;;;38.90;55.70;;;;;;5036770;28;20037;-79
2021/08/14 12:34:25;;;;;;;5.60;4.40;;;38.40;55.00;;;;;;5019756;28;20040;-79
2021/08/14 12:37:11;;;;;;;5.82;4.20;;;38.10;56.20;;;;;;5040907;28;20450;-79
2021/08/14 12:39:51;;;;;;;7.72;4.60;;;38.40;55.10;;;;;;5040015;28;20017;-79
2021/08/14 12:42:31;;;;;;;9.85;4.60;;;38.90;55.40;;;;;;5040777;28;20032;-79
2021/08/14 12:44:59;;;;;;;8.75;4.35;;;39.00;54.60;;;;;;5034791;28;20114;-79
2021/08/14 12:47:25;;;;;;;9.18;4.40;;;39.50;54.10;;;;;;5006969;28;20030;-79
2021/08/14 12:50:14;;;;;;;9.02;4.68;;;39.80;55.40;;;;;;5040506;28;20030;-79
2021/08/14 12:53:04;;;;;;;9.65;4.60;;;40.10;54.20;;;;;;5040471;28;20124;-79
2021/08/14 12:55:41;;;;;;;8.07;4.63;;;40.20;53.70;;;;;;5041879;28;20026;-79
2021/08/14 12:58:19;;;;;;;7.82;4.70;;;40.20;53.60;;;;;;5042460;28;20044;-78
2021/08/14 13:00:48;;;;;;;7.18;4.75;;;39.90;54.30;;;;;;5039289;28;20017;-78
2021/08/14 13:03:14;;;;;;;5.90;4.70;;;40.10;53.10;;;;;;5039422;28;20034;-78
2021/08/14 13:05:40;;;;;;;8.48;4.72;;;39.10;55.30;;;;;;5038920;28;20076;-79
2021/08/14 13:08:06;;;;;;;6.75;4.68;;;39.40;55.40;;;;;;5039463;28;20052;-80
2021/08/14 13:10:34;;;;;;;6.75;4.60;;;39.00;54.90;;;;;;5039183;28;20026;-79
2021/08/14 13:13:00;;;;;;;10.38;4.90;;;39.00;55.40;;;;;;5022767;28;20033;-78
2021/08/14 13:15:27;;;;;;;7.55;4.55;;;38.60;53.80;;;;;;5039484;28;20431;-79
2021/08/14 13:17:54;;;;;;;9.10;5.00;;;38.70;55.80;;;;;;5040930;28;20577;-79
2021/08/14 13:20:21;;;;;;;11.60;5.22;;;39.60;54.00;;;;;;5039635;28;20044;-79
2021/08/14 13:22:49;;;;;;;5.60;4.90;;;39.70;54.60;;;;;;5045004;28;20030;-79
2021/08/14 13:25:15;;;;;;;9.60;5.70;;;39.20;55.40;;;;;;5038754;28;20022;-79
2021/08/14 13:27:43;;;;;;;8.75;5.10;;;39.80;55.00;;;;;;5054531;28;20033;-79
2021/08/14 13:30:21;;;;;;;6.65;5.13;;;40.00;52.90;;;;;;5037242;28;20026;-79
2021/08/14 13:32:48;;;;;;;10.43;4.90;;;41.10;54.30;;;;;;5038152;28;20025;-82
2021/08/14 13:35:15;;;;;;;6.80;4.95;;;41.10;52.10;;;;;;5038966;28;20075;-78
2021/08/14 13:37:42;;;;;;;5.88;4.60;;;41.20;52.20;;;;;;5036396;28;20032;-78
2021/08/14 13:40:09;;;;;;;9.13;4.95;;;42.00;51.70;;;;;;5036232;28;20044;-78
2021/08/14 13:42:36;;;;;;;7.63;4.78;;;42.00;50.80;;;;;;5037467;28;20025;-79
2021/08/14 13:45:03;;;;;;;11.10;4.70;;;41.90;52.30;;;;;;5035576;28;20018;-77
2021/08/14 13:47:29;;;;;;;5.75;4.63;;;42.10;51.60;;;;;;5034801;28;20095;-78
2021/08/14 13:49:58;;;;;;;5.72;4.85;;;42.00;50.90;;;;;;5034172;28;20033;-77
2021/08/14 13:52:24;;;;;;;7.00;4.75;;;42.20;51.30;;;;;;5036287;28;20543;-77
2021/08/14 13:54:50;;;;;;;14.90;4.55;;;43.10;50.50;;;;;;5035560;28;20068;-78
2021/08/14 13:57:15;;;;;;;8.35;5.15;;;42.70;50.90;;;;;;5032786;28;20042;-78
2021/08/14 13:59:41;;;;;;;7.50;4.68;;;42.70;51.00;;;;;;5033613;28;20109;-78
2021/08/14 14:02:09;;;;;;;13.15;4.90;;;43.00;50.50;;;;;;5035264;28;20083;-77